Cedar Creek Observed Data For Previous 48 Hours

Caption
Day and Hour Reservoir Elevation (behind dam)* Tailwater Elevation (below dam)* Average Hourly Discharge*
7/15/2018 1 AM CDT 580.15 499.20 81
7/15/2018 2 AM CDT 580.15 499.20 81
7/15/2018 3 AM CDT 580.15 499.20 81
7/15/2018 4 AM CDT 580.15 499.20 81
7/15/2018 5 AM CDT 580.15 499.20 81
7/15/2018 6 AM CDT 580.15 499.20 81
7/15/2018 7 AM CDT 580.15 499.20 81
7/15/2018 8 AM CDT 580.15 499.20 81
7/15/2018 9 AM CDT 580.15 499.19 81
7/15/2018 10 AM CDT 580.15 499.19 81
7/15/2018 11 AM CDT 580.15 499.19 81
7/15/2018 12 PM CDT 580.15 499.20 81
7/15/2018 1 PM CDT 580.14 499.19 80
7/15/2018 2 PM CDT 580.15 499.20 80
7/15/2018 3 PM CDT 580.21 499.25 85
7/15/2018 4 PM CDT 580.25 499.29 94
7/15/2018 5 PM CDT 580.25 499.33 97
7/15/2018 6 PM CDT 580.26 499.33 98
7/15/2018 7 PM CDT 580.26 499.33 99
7/15/2018 8 PM CDT 580.26 499.34 99
7/15/2018 9 PM CDT 580.27 499.34 100
7/15/2018 10 PM CDT 580.26 499.34 100
7/15/2018 11 PM CDT 580.27 499.34 100
7/16/2018 12 AM CDT 580.27 499.34 101
7/16/2018 1 AM CDT 580.27 499.34 101
7/16/2018 2 AM CDT 580.27 499.34 101
7/16/2018 3 AM CDT 580.27 499.34 101
7/16/2018 4 AM CDT 580.27 499.34 101
7/16/2018 5 AM CDT 580.27 499.34 101
7/16/2018 6 AM CDT 580.28 499.34 102
7/16/2018 7 AM CDT 580.27 499.34 102
7/16/2018 8 AM CDT 580.27 499.34 101
7/16/2018 9 AM CDT 580.27 499.34 101
7/16/2018 10 AM CDT 580.29 499.36 103
7/16/2018 11 AM CDT 580.29 499.37 104
7/16/2018 12 PM CDT 580.28 499.36 103
7/16/2018 1 PM CDT 580.29 499.36 103
7/16/2018 2 PM CDT 580.28 499.36 103
7/16/2018 3 PM CDT 580.29 499.37 103
7/16/2018 4 PM CDT 580.29 499.37 104
7/16/2018 5 PM CDT 580.29 499.37 104
7/16/2018 6 PM CDT 580.29 499.36 104
7/16/2018 7 PM CDT 580.29 499.36 104
7/16/2018 8 PM CDT 580.29 499.36 104
7/16/2018 9 PM CDT 580.29 499.35 104
7/16/2018 10 PM CDT 580.29 499.36 104
7/16/2018 11 PM CDT 580.28 499.36 103
7/17/2018 12 AM CDT 580.28 499.36 103
7/17/2018 1 AM CDT 580.29 499.35 103
7/17/2018 2 AM CDT 580.29 499.36 104
7/17/2018 3 AM CDT 580.29 499.36 104

Elevations are in feet above sea level. Discharges are in cubic feet per second and are reported at the end of the hour.